Time;durP1;ratioP1;P1;durP2;ratioP2;P2;SDS_P1;SDS_P2;PMS_P1;PMS_P2;Temp;Humidity;BMP_temperature;BMP_pressure;BME280_temperature;BME280_humidity;BME280_pressure;Samples;Min_cycle;Max_cycle;Signal;HPM_P1;HPM_P2
2022/05/16 00:00:59;;;;;;;3.90;2.72;;;;;;;16.77;75.93;93094.53;2098460;28;20669;-83
2022/05/16 00:02:01;;;;;;;3.17;2.63;;;;;;;16.74;76.18;93087.38;2089782;28;20079;-82
2022/05/16 00:03:04;;;;;;;2.85;2.33;;;;;;;16.66;77.20;93091.56;2098679;28;20025;-82
2022/05/16 00:04:05;;;;;;;4.78;2.50;;;;;;;16.77;77.03;93087.22;2106503;28;20051;-81
2022/05/16 00:05:07;;;;;;;3.47;2.40;;;;;;;16.79;76.00;93092.91;2089999;28;20079;-81
2022/05/16 00:06:08;;;;;;;3.22;2.50;;;;;;;16.89;75.38;93088.19;2098407;28;20435;-82
2022/05/16 00:07:09;;;;;;;6.03;2.75;;;;;;;16.88;75.98;93094.81;2098317;28;20070;-83
2022/05/16 00:08:10;;;;;;;3.28;2.20;;;;;;;16.87;75.12;93096.03;2081758;28;20383;-81
2022/05/16 00:09:11;;;;;;;3.55;2.53;;;;;;;16.79;75.64;93098.28;2075747;28;20037;-82
2022/05/16 00:10:12;;;;;;;3.83;2.65;;;;;;;16.72;76.89;93090.50;2089958;28;20017;-80
2022/05/16 00:11:14;;;;;;;5.18;2.85;;;;;;;16.71;77.67;93085.56;2081714;28;20026;-80
2022/05/16 00:12:15;;;;;;;4.55;2.63;;;;;;;16.59;78.84;93096.09;2080716;28;20433;-83
2022/05/16 00:13:16;;;;;;;3.30;2.50;;;;;;;16.63;80.19;93095.91;2086604;28;20060;-81
2022/05/16 00:14:17;;;;;;;4.47;2.40;;;;;;;16.53;79.89;93091.75;2089738;28;20108;-82
2022/05/16 00:15:21;;;;;;;3.55;2.35;;;;;;;16.50;80.46;93085.31;2098301;28;20059;-83
2022/05/16 00:16:22;;;;;;;6.32;2.67;;;;;;;16.56;77.84;93085.47;2106467;28;20024;-81
2022/05/16 00:17:23;;;;;;;5.43;2.63;;;;;;;16.52;78.43;93080.22;2081979;28;20041;-81
2022/05/16 00:18:24;;;;;;;3.47;2.35;;;;;;;16.55;77.98;93078.53;2081877;28;20017;-81
2022/05/16 00:19:26;;;;;;;5.78;2.60;;;;;;;16.51;78.30;93067.19;2081640;28;20474;-82
2022/05/16 00:20:27;;;;;;;4.20;2.55;;;;;;;16.49;78.87;93072.28;2082687;28;20136;-83
2022/05/16 00:21:28;;;;;;;5.57;2.60;;;;;;;16.48;78.98;93070.78;2089655;28;20098;-83
2022/05/16 00:22:29;;;;;;;2.60;2.40;;;;;;;16.48;79.20;93074.22;2098050;28;20035;-82
2022/05/16 00:23:30;;;;;;;2.70;2.17;;;;;;;16.45;79.37;93069.72;2098180;28;20471;-82
2022/05/16 00:24:31;;;;;;;4.00;2.70;;;;;;;16.43;80.50;93074.09;2098271;28;20086;-80
2022/05/16 00:25:32;;;;;;;3.30;2.58;;;;;;;16.43;81.86;93071.41;2100334;28;20029;-82
2022/05/16 00:26:34;;;;;;;4.22;2.60;;;;;;;16.34;83.64;93070.22;2114614;28;20043;-81
2022/05/16 00:27:35;;;;;;;5.72;2.60;;;;;;;16.35;81.99;93063.63;2104105;28;20023;-82
2022/05/16 00:28:36;;;;;;;2.92;2.60;;;;;;;16.38;81.91;93061.22;2106484;28;20101;-81
2022/05/16 00:29:38;;;;;;;5.28;2.50;;;;;;;16.36;81.09;93067.06;2097989;28;20036;-81
2022/05/16 00:30:39;;;;;;;5.10;2.50;;;;;;;16.40;80.57;93061.50;2106424;28;20508;-80
2022/05/16 00:31:40;;;;;;;3.72;2.70;;;;;;;16.35;81.45;93060.94;2108951;28;20024;-83
2022/05/16 00:32:41;;;;;;;5.30;3.00;;;;;;;16.32;81.92;93056.44;2098256;28;20029;-80
2022/05/16 00:33:42;;;;;;;5.40;2.50;;;;;;;16.38;80.99;93063.94;2089694;28;20138;-82
2022/05/16 00:34:43;;;;;;;3.80;2.60;;;;;;;16.35;81.04;93062.88;2089637;28;20860;-81
2022/05/16 00:35:44;;;;;;;7.63;2.72;;;;;;;16.32;82.95;93063.78;2089620;28;20035;-81
2022/05/16 00:36:48;;;;;;;3.97;2.80;;;;;;;16.35;81.20;93062.88;2089804;28;20033;-82
2022/05/16 00:37:49;;;;;;;5.35;2.65;;;;;;;16.34;81.32;93064.09;2098779;28;20070;-82
2022/05/16 00:38:53;;;;;;;2.97;2.50;;;;;;;16.46;80.23;93057.75;2097946;28;20025;-81
2022/05/16 00:39:55;;;;;;;6.97;3.00;;;;;;;16.43;80.91;93066.75;2090367;28;20032;-81
2022/05/16 00:40:59;;;;;;;4.28;3.17;;;;;;;16.50;80.89;93068.38;2097943;28;20031;-82
2022/05/16 00:42:01;;;;;;;4.40;2.40;;;;;;;16.47;81.05;93072.75;2098416;28;20025;-82
2022/05/16 00:43:05;;;;;;;4.82;2.55;;;;;;;16.48;81.38;93071.53;2107727;28;20031;-81
2022/05/16 00:44:06;;;;;;;4.82;2.35;;;;;;;16.63;78.48;93075.06;2106191;28;20461;-81
2022/05/16 00:45:12;;;;;;;5.13;2.38;;;;;;;16.78;78.38;93077.16;2097991;28;20055;-82
2022/05/16 00:46:15;;;;;;;3.00;2.40;;;;;;;16.80;77.64;93069.34;2098426;28;20090;-80
2022/05/16 00:47:16;;;;;;;4.20;2.50;;;;;;;16.85;77.01;93074.88;2106445;28;20032;-82
2022/05/16 00:48:17;;;;;;;3.05;2.75;;;;;;;16.91;75.57;93069.63;2106353;28;20472;-81
2022/05/16 00:49:33;;;;;;;5.47;2.53;;;;;;;17.00;74.97;93076.91;2103060;28;20024;-82
2022/05/16 00:50:39;;;;;;;3.80;2.40;;;;;;;17.16;73.11;93062.28;2102368;28;20512;-80
2022/05/16 00:51:45;;;;;;;5.30;2.60;;;;;;;17.19;72.71;93069.47;2098937;28;20123;-81
2022/05/16 00:52:49;;;;;;;2.53;2.17;;;;;;;17.26;71.31;93067.19;2097872;28;20162;-82
2022/05/16 00:53:55;;;;;;;4.05;2.20;;;;;;;17.33;70.74;93066.06;2106480;28;20766;-83
2022/05/16 00:55:04;;;;;;;2.55;2.30;;;;;;;17.48;68.89;93058.78;2106957;28;20099;-83
2022/05/16 00:56:05;;;;;;;3.38;1.90;;;;;;;17.44;69.65;93058.22;2106107;28;20961;-82
2022/05/16 00:57:11;;;;;;;5.30;2.50;;;;;;;17.31;70.93;93058.44;2089730;28;20059;-81
2022/05/16 00:58:14;;;;;;;5.30;2.60;;;;;;;17.17;72.55;93056.44;2098575;28;20081;-80
2022/05/16 00:59:15;;;;;;;2.92;2.10;;;;;;;17.23;71.17;93059.25;2090177;28;20804;-82
2022/05/16 01:00:31;;;;;;;3.95;2.30;;;;;;;17.15;72.79;93060.78;2089648;28;20055;-82
2022/05/16 01:05:39;;;;;;;5.65;2.47;;;;;;;17.53;68.26;93057.41;2108490;28;20027;-83
2022/05/16 01:06:40;;;;;;;2.83;1.88;;;;;;;17.42;70.52;93051.75;2105879;28;20122;-82
2022/05/16 01:07:44;;;;;;;4.30;2.53;;;;;;;17.29;71.20;93052.72;2106255;28;20020;-81
2022/05/16 01:08:45;;;;;;;5.75;2.55;;;;;;;17.33;71.18;93056.00;2106133;28;20069;-81
2022/05/16 01:09:46;;;;;;;3.50;2.35;;;;;;;17.36;70.08;93054.34;2089243;28;20016;-81
2022/05/16 01:10:47;;;;;;;3.80;2.40;;;;;;;17.27;71.55;93059.81;2089559;28;20025;-82
2022/05/16 01:11:48;;;;;;;4.20;2.15;;;;;;;17.23;72.14;93059.25;2089315;28;20565;-82
2022/05/16 01:12:51;;;;;;;4.50;2.50;;;;;;;17.41;69.33;93055.66;2089093;28;20025;-82
2022/05/16 01:13:52;;;;;;;5.15;2.38;;;;;;;17.46;68.96;93055.78;2089764;28;20031;-80
2022/05/16 01:14:56;;;;;;;5.55;2.75;;;;;;;17.38;69.55;93051.94;2106081;28;20039;-83
2022/05/16 01:15:59;;;;;;;5.95;2.38;;;;;;;17.32;70.35;93054.53;2089259;28;20031;-81
2022/05/16 01:17:00;;;;;;;4.93;2.40;;;;;;;17.25;71.39;93048.72;2082084;28;20017;-81
2022/05/16 01:18:04;;;;;;;3.25;2.17;;;;;;;17.36;70.86;93048.94;2081205;28;20502;-81
2022/05/16 01:19:05;;;;;;;4.93;2.55;;;;;;;17.65;67.38;93051.00;2081983;28;20036;-82
2022/05/16 01:20:09;;;;;;;4.05;1.98;;;;;;;17.60;67.65;93052.41;2081143;28;20029;-83
2022/05/16 01:21:34;;;;;;;2.40;2.20;;;;;;;17.61;68.79;93045.78;2073804;28;20118;-82
2022/05/16 01:22:47;;;;;;;4.40;2.60;;;;;;;17.64;67.29;93054.91;2087438;28;20028;-81
2022/05/16 01:23:52;;;;;;;2.67;2.45;;;;;;;17.68;67.68;93054.72;2099256;28;20473;-81
2022/05/16 01:24:55;;;;;;;4.57;2.63;;;;;;;17.78;66.40;93048.06;2097580;28;20508;-81
2022/05/16 01:25:57;;;;;;;3.40;2.10;;;;;;;17.80;66.20;93049.09;2097631;28;20497;-82
2022/05/16 01:26:59;;;;;;;4.68;2.88;;;;;;;17.67;68.07;93058.66;2097978;28;20032;-82
2022/05/16 01:28:05;;;;;;;4.00;2.75;;;;;;;17.83;66.49;93050.88;2089352;28;20092;-82
2022/05/16 01:29:06;;;;;;;4.20;2.17;;;;;;;17.78;67.57;93048.06;2089963;28;20039;-82
2022/05/16 01:30:08;;;;;;;3.17;2.40;;;;;;;17.77;67.11;93051.97;2097678;28;20024;-81
2022/05/16 01:31:09;;;;;;;5.80;2.20;;;;;;;17.60;68.01;93049.69;2081357;28;20020;-83
2022/05/16 01:32:12;;;;;;;4.97;2.45;;;;;;;17.50;69.07;93050.19;2089373;28;20021;-81
2022/05/16 01:33:15;;;;;;;3.33;2.13;;;;;;;17.63;67.40;93048.75;2098856;28;20077;-81
2022/05/16 01:34:16;;;;;;;3.20;2.70;;;;;;;17.65;67.60;93048.31;2104807;28;20058;-82
2022/05/16 01:35:19;;;;;;;6.30;2.58;;;;;;;17.55;69.41;93044.91;2097619;28;20166;-81
2022/05/16 01:36:20;;;;;;;3.97;2.50;;;;;;;17.46;70.37;93050.38;2081836;28;20025;-83
2022/05/16 01:38:18;;;;;;;6.85;2.67;;;;;;;17.50;69.41;93039.38;2089427;28;20028;-81
2022/05/16 01:38:42;;;;;;;5.63;2.65;;;;;;;17.56;69.03;93046.41;2091950;28;20040;-83
2022/05/16 01:39:43;;;;;;;3.58;3.17;;;;;;;17.47;71.85;93046.47;2096076;28;20028;-80
2022/05/16 01:40:49;;;;;;;3.83;2.80;;;;;;;17.47;69.92;93051.13;2089063;28;20539;-81
2022/05/16 01:41:57;;;;;;;5.75;2.70;;;;;;;17.39;71.44;93050.00;2089982;28;20021;-83
2022/05/16 01:42:58;;;;;;;6.35;2.80;;;;;;;17.36;71.38;93051.66;2098310;28;20081;-80
2022/05/16 01:44:00;;;;;;;5.43;2.67;;;;;;;17.48;69.21;93056.06;2097524;28;20028;-80
2022/05/16 01:45:02;;;;;;;7.40;2.80;;;;;;;17.44;70.08;93052.81;2089366;28;20088;-81
2022/05/16 01:46:04;;;;;;;4.88;2.80;;;;;;;17.40;70.83;93046.09;2089332;28;20028;-82
2022/05/16 01:47:05;;;;;;;5.35;2.60;;;;;;;17.30;72.61;93045.41;2089650;28;20086;-82
2022/05/16 01:48:07;;;;;;;3.78;2.60;;;;;;;17.22;73.61;93049.66;2081135;28;20444;-80
2022/05/16 01:49:10;;;;;;;5.63;2.67;;;;;;;17.07;75.24;93055.72;2081211;28;20039;-81
2022/05/16 01:50:11;;;;;;;8.30;2.97;;;;;;;17.02;78.83;93052.91;2081629;28;20080;-82
2022/05/16 01:51:13;;;;;;;4.40;2.85;;;;;;;16.97;77.35;93053.53;2089286;28;20167;-81
2022/05/16 01:52:14;;;;;;;8.68;2.92;;;;;;;16.99;79.80;93051.88;2089343;28;20059;-80
2022/05/16 01:53:17;;;;;;;3.60;2.88;;;;;;;16.97;78.86;93050.81;2080932;28;20520;-81
2022/05/16 01:54:18;;;;;;;2.45;2.25;;;;;;;16.84;80.22;93059.13;2089745;28;20025;-82
2022/05/16 01:55:19;;;;;;;3.88;2.90;;;;;;;16.84;77.27;93062.56;2097600;28;20126;-82
2022/05/16 01:56:20;;;;;;;3.97;2.78;;;;;;;16.77;78.04;93059.44;2097255;28;20073;-82
2022/05/16 01:57:21;;;;;;;3.45;2.58;;;;;;;16.73;78.08;93056.94;2097372;28;20420;-81
2022/05/16 01:58:23;;;;;;;4.50;2.85;;;;;;;16.75;78.60;93067.28;2089118;28;20021;-81
2022/05/16 01:59:24;;;;;;;2.50;2.30;;;;;;;16.62;81.11;93064.75;2081034;28;20038;-82
2022/05/16 02:00:25;;;;;;;5.50;2.80;;;;;;;16.56;79.81;93064.63;2097467;28;20032;-82
2022/05/16 02:01:26;;;;;;;3.25;2.70;;;;;;;16.54;81.13;93066.25;2097282;28;20381;-81
2022/05/16 02:02:36;;;;;;;3.17;2.42;;;;;;;16.44;82.87;93062.84;2089185;28;20029;-81
2022/05/16 02:03:39;;;;;;;5.97;2.70;;;;;;;16.41;83.75;93063.00;2083120;28;20029;-81
2022/05/16 02:04:41;;;;;;;5.05;2.63;;;;;;;16.39;84.96;93070.81;2081308;28;20033;-82
2022/05/16 02:05:44;;;;;;;3.80;2.88;;;;;;;16.32;86.51;93066.47;2097459;28;20024;-82
2022/05/16 02:06:45;;;;;;;5.25;2.75;;;;;;;16.29;87.32;93067.41;2097409;28;20020;-80
2022/05/16 02:07:46;;;;;;;8.40;2.63;;;;;;;16.29;86.28;93070.09;2089246;28;20021;-82
2022/05/16 02:08:48;;;;;;;6.07;2.53;;;;;;;16.21;86.71;93072.34;2097413;28;20028;-81
2022/05/16 02:09:49;;;;;;;4.50;2.45;;;;;;;16.16;86.85;93072.97;2089068;28;20074;-80
2022/05/16 02:10:50;;;;;;;5.60;2.90;;;;;;;16.17;86.00;93066.38;2097197;28;20082;-81
2022/05/16 02:13:15;;;;;;;4.88;2.72;;;;;;;16.13;86.59;93075.81;2139450;27;20169;-82
2022/05/16 02:14:16;;;;;;;5.55;2.35;;;;;;;16.13;85.83;93075.81;2130937;27;20026;-82
2022/05/16 02:15:22;;;;;;;3.72;2.60;;;;;;;16.34;82.97;93074.88;2130361;27;20491;-83
2022/05/16 02:16:23;;;;;;;4.97;2.33;;;;;;;16.27;83.20;93073.22;2114028;28;20026;-82
2022/05/16 02:17:24;;;;;;;3.60;2.65;;;;;;;16.17;83.16;93082.53;2113438;28;20493;-83
2022/05/16 02:18:26;;;;;;;4.35;2.60;;;;;;;16.11;83.50;93079.72;2113449;27;20012;-82
2022/05/16 02:19:27;;;;;;;4.13;2.78;;;;;;;16.06;83.05;93080.28;2113164;28;20019;-83
2022/05/16 02:20:28;;;;;;;2.95;2.75;;;;;;;16.00;84.63;93078.66;2105117;28;20134;-83
2022/05/16 02:25:32;;;;;;;2.60;2.40;;;;;;;15.91;83.89;93087.50;2123738;27;20486;-81
2022/05/16 02:26:33;;;;;;;4.80;2.55;;;;;;;15.87;85.26;93081.53;2130738;27;20027;-82
2022/05/16 02:27:34;;;;;;;3.97;2.63;;;;;;;15.83;84.98;93081.66;2121121;28;20027;-83
2022/05/16 02:28:37;;;;;;;2.20;2.10;;;;;;;15.88;85.37;93085.69;2112888;28;20027;-81
2022/05/16 02:29:38;;;;;;;3.70;2.80;;;;;;;15.78;87.40;93079.56;2112919;28;20028;-83
2022/05/16 02:30:41;;;;;;;4.93;2.65;;;;;;;15.70;89.36;93088.41;2104416;28;20020;-82
2022/05/16 02:31:42;;;;;;;3.10;2.47;;;;;;;15.67;88.03;93086.59;2115820;27;20027;-83
2022/05/16 02:32:43;;;;;;;3.40;2.70;;;;;;;15.57;89.47;93083.88;2121678;27;20057;-83
2022/05/16 02:33:44;;;;;;;6.07;2.80;;;;;;;15.52;88.72;93083.72;2113289;28;20034;-84
2022/05/16 02:34:45;;;;;;;3.28;2.53;;;;;;;15.46;89.21;93083.56;2104751;28;20021;-85
2022/05/16 02:35:47;;;;;;;4.35;2.72;;;;;;;15.55;89.28;93086.28;2121364;28;20047;-84
2022/05/16 02:36:48;;;;;;;6.05;2.33;;;;;;;15.57;88.46;93085.81;2113332;27;20065;-83
2022/05/16 02:37:50;;;;;;;3.95;2.60;;;;;;;15.66;88.07;93085.09;2121268;28;20648;-83
2022/05/16 02:38:51;;;;;;;2.85;2.50;;;;;;;15.55;88.72;93094.38;2121711;27;20023;-83
2022/05/16 02:39:52;;;;;;;4.13;2.75;;;;;;;15.46;91.15;93088.97;2120161;28;20035;-83
2022/05/16 02:40:53;;;;;;;3.45;3.10;;;;;;;15.40;90.61;93088.03;2121285;28;20032;-83
2022/05/16 02:41:54;;;;;;;10.00;2.60;;;;;;;15.30;90.58;93103.44;2113142;28;20020;-82
2022/05/16 02:43:02;;;;;;;3.60;2.70;;;;;;;15.33;90.91;93099.88;2104833;28;20021;-83
2022/05/16 02:44:03;;;;;;;7.38;2.95;;;;;;;15.29;91.68;93099.25;2113961;28;20032;-84
2022/05/16 02:45:05;;;;;;;3.90;2.60;;;;;;;15.24;92.62;93101.81;2104755;28;20066;-83
2022/05/16 02:46:06;;;;;;;4.18;2.72;;;;;;;15.14;94.39;93094.88;2104853;28;20024;-84
2022/05/16 02:47:09;;;;;;;3.63;3.03;;;;;;;15.05;94.82;93090.97;2104578;28;20020;-83
2022/05/16 02:48:10;;;;;;;4.40;2.80;;;;;;;14.89;97.74;93096.59;2104927;28;20024;-84
2022/05/16 02:49:11;;;;;;;2.80;2.50;;;;;;;14.89;96.47;93099.31;2104559;28;20024;-84
2022/05/16 02:50:12;;;;;;;2.83;2.40;;;;;;;14.97;95.59;93099.75;2104470;28;20106;-82
2022/05/16 02:51:13;;;;;;;3.35;2.80;;;;;;;15.08;96.04;93097.41;2104524;28;20020;-82
2022/05/16 02:52:15;;;;;;;3.92;2.72;;;;;;;14.98;96.29;93107.41;2104515;28;20016;-83
2022/05/16 02:53:16;;;;;;;4.13;2.70;;;;;;;14.84;98.08;93102.56;2104829;28;20028;-83
2022/05/16 02:54:17;;;;;;;4.63;2.72;;;;;;;14.75;97.19;93107.91;2104743;28;20020;-84
2022/05/16 02:55:19;;;;;;;6.40;2.97;;;;;;;14.68;99.87;93100.84;2112798;28;20035;-84
2022/05/16 02:56:20;;;;;;;4.75;2.90;;;;;;;14.61;100.00;93099.16;2109951;28;20031;-83
2022/05/16 02:57:21;;;;;;;3.38;2.80;;;;;;;14.66;99.90;93103.22;2104490;28;20027;-82
2022/05/16 02:58:22;;;;;;;4.03;2.95;;;;;;;14.57;100.00;93100.50;2113042;27;20031;-82
2022/05/16 02:59:25;;;;;;;7.38;3.53;;;;;;;14.48;100.00;93105.81;2113010;28;20059;-83
2022/05/16 03:00:26;;;;;;;2.80;2.60;;;;;;;14.45;100.00;93112.06;2105234;28;20051;-83
2022/05/16 03:01:29;;;;;;;3.38;3.05;;;;;;;14.49;100.00;93112.72;2104068;28;20055;-84
2022/05/16 03:02:29;;;;;;;5.43;2.90;;;;;;;14.49;100.00;93110.78;2096384;28;20039;-83
2022/05/16 03:03:32;;;;;;;5.43;2.67;;;;;;;14.41;100.00;93109.50;2104489;28;20385;-84
2022/05/16 03:04:35;;;;;;;2.95;2.58;;;;;;;14.39;100.00;93111.88;2105091;28;20024;-83
2022/05/16 03:05:36;;;;;;;3.83;3.30;;;;;;;14.31;100.00;93113.31;2112945;28;20418;-85
2022/05/16 03:06:37;;;;;;;3.80;2.92;;;;;;;14.21;100.00;93112.50;2102246;28;20024;-83
2022/05/16 03:07:39;;;;;;;3.13;2.50;;;;;;;14.19;100.00;93114.16;2096017;28;20024;-82
2022/05/16 03:08:40;;;;;;;3.30;2.97;;;;;;;14.16;100.00;93117.72;2104290;28;20529;-84
2022/05/16 03:09:41;;;;;;;3.42;2.70;;;;;;;14.09;100.00;93108.72;2095123;28;20028;-83
2022/05/16 03:10:42;;;;;;;4.75;2.92;;;;;;;14.10;100.00;93120.22;2096061;28;20026;-84
2022/05/16 03:11:44;;;;;;;3.08;2.80;;;;;;;14.08;100.00;93109.88;2095930;28;20036;-84
2022/05/16 03:12:46;;;;;;;7.72;3.05;;;;;;;14.07;100.00;93116.47;2096144;28;20045;-84
2022/05/16 03:13:47;;;;;;;3.63;2.67;;;;;;;14.10;100.00;93109.47;2095880;28;20025;-84
2022/05/16 03:14:48;;;;;;;3.35;2.60;;;;;;;14.09;100.00;93111.41;2087825;28;20812;-84
2022/05/16 03:15:50;;;;;;;4.93;2.97;;;;;;;14.04;100.00;93106.56;2095962;28;20025;-84
2022/05/16 03:16:51;;;;;;;4.32;2.55;;;;;;;14.10;100.00;93114.84;2104436;28;20457;-82
2022/05/16 03:17:52;;;;;;;4.35;3.05;;;;;;;14.16;100.00;93112.34;2104491;28;20032;-83
2022/05/16 03:18:54;;;;;;;3.08;2.72;;;;;;;14.15;100.00;93102.78;2112743;28;20066;-82
2022/05/16 03:19:55;;;;;;;2.88;2.67;;;;;;;14.13;100.00;93105.13;2096128;28;20031;-83
2022/05/16 03:20:57;;;;;;;4.32;3.30;;;;;;;14.02;100.00;93100.91;2087679;28;20521;-83
2022/05/16 03:21:58;;;;;;;4.13;3.72;;;;;;;13.97;100.00;93103.41;2096206;28;20107;-84
2022/05/16 03:22:59;;;;;;;3.30;3.00;;;;;;;13.99;100.00;93114.47;2095780;28;20070;-84
2022/05/16 03:24:08;;;;;;;4.03;3.42;;;;;;;13.86;100.00;93114.50;2093918;28;20094;-82
2022/05/16 03:25:10;;;;;;;4.72;3.15;;;;;;;13.92;100.00;93109.34;2092815;28;20076;-83
2022/05/16 03:26:12;;;;;;;3.58;2.80;;;;;;;13.91;100.00;93108.56;2090482;28;20063;-83
2022/05/16 03:27:13;;;;;;;5.22;3.38;;;;;;;13.88;100.00;93108.72;2090748;28;20135;-84
2022/05/16 03:28:14;;;;;;;5.60;3.25;;;;;;;13.80;100.00;93113.59;2098704;28;20043;-83
2022/05/16 03:29:16;;;;;;;5.13;3.22;;;;;;;13.85;100.00;93104.97;2098690;28;20024;-83
2022/05/16 03:30:17;;;;;;;4.10;2.95;;;;;;;13.90;100.00;93109.03;2090508;28;20021;-84
2022/05/16 03:31:19;;;;;;;3.88;3.10;;;;;;;14.04;100.00;93113.91;2090422;28;20032;-84
2022/05/16 03:32:19;;;;;;;5.25;2.92;;;;;;;14.02;100.00;93102.84;2108663;28;20035;-83
2022/05/16 03:33:20;;;;;;;7.25;3.13;;;;;;;13.99;100.00;93112.53;2115435;28;20040;-84
2022/05/16 03:34:21;;;;;;;6.05;3.20;;;;;;;13.93;100.00;93110.84;2098680;28;20382;-84
2022/05/16 03:35:22;;;;;;;3.90;3.17;;;;;;;13.91;100.00;93111.25;2090453;28;20036;-84
2022/05/16 03:36:24;;;;;;;3.95;3.08;;;;;;;13.94;100.00;93110.41;2090470;28;20051;-83
2022/05/16 03:37:25;;;;;;;3.83;3.22;;;;;;;13.91;100.00;93110.50;2097780;28;20583;-83
2022/05/16 03:41:08;;;;;;;5.55;3.13;;;;;;;13.91;100.00;93105.88;2107162;28;20373;-84
2022/05/16 03:42:09;;;;;;;5.32;3.58;;;;;;;13.87;100.00;93113.31;2098600;28;20063;-83
2022/05/16 03:43:13;;;;;;;4.03;3.63;;;;;;;13.86;100.00;93111.81;2090235;28;20017;-85
2022/05/16 03:44:14;;;;;;;5.78;3.58;;;;;;;13.79;100.00;93107.47;2090775;28;20025;-82
2022/05/16 03:45:17;;;;;;;3.30;3.00;;;;;;;13.80;100.00;93110.88;2090539;28;20411;-83
2022/05/16 03:46:18;;;;;;;3.92;3.10;;;;;;;13.86;100.00;93117.94;2098734;28;20064;-83
2022/05/16 03:47:19;;;;;;;5.53;3.55;;;;;;;13.93;100.00;93116.97;2090468;28;20025;-83
2022/05/16 03:48:20;;;;;;;3.42;3.00;;;;;;;13.88;100.00;93112.16;2090215;28;20021;-83
2022/05/16 03:49:21;;;;;;;4.80;3.35;;;;;;;13.81;100.00;93112.38;2090376;28;20087;-84
2022/05/16 03:50:22;;;;;;;4.45;3.15;;;;;;;13.82;100.00;93108.50;2090342;28;20033;-81
2022/05/16 03:51:23;;;;;;;5.55;3.55;;;;;;;13.80;100.00;93122.38;2090298;28;20512;-83
2022/05/16 03:52:24;;;;;;;4.07;3.42;;;;;;;13.81;100.00;93117.75;2090362;28;20024;-83
2022/05/16 03:53:25;;;;;;;3.65;3.10;;;;;;;13.77;100.00;93115.19;2098396;28;20021;-82
2022/05/16 03:54:26;;;;;;;3.85;3.08;;;;;;;13.81;100.00;93113.13;2090162;28;20021;-82
2022/05/16 03:55:30;;;;;;;3.65;3.35;;;;;;;13.78;100.00;93108.66;2098497;28;20485;-84
2022/05/16 03:56:31;;;;;;;4.70;3.28;;;;;;;13.71;100.00;93111.56;2098386;28;20771;-82
2022/05/16 03:57:32;;;;;;;3.85;3.45;;;;;;;13.64;100.00;93121.78;2082225;28;20410;-82
2022/05/16 03:58:33;;;;;;;3.63;3.30;;;;;;;13.62;100.00;93114.19;2097051;28;20028;-83
2022/05/16 03:59:34;;;;;;;4.28;3.58;;;;;;;13.64;100.00;93114.47;2098444;28;20024;-84
2022/05/16 04:00:35;;;;;;;6.75;3.03;;;;;;;13.59;100.00;93113.09;2107171;28;20036;-84
2022/05/16 04:01:36;;;;;;;4.07;2.90;;;;;;;13.56;100.00;93111.31;2106716;28;20028;-83
2022/05/16 04:02:38;;;;;;;5.55;3.15;;;;;;;13.49;100.00;93114.22;2090324;28;20465;-84
2022/05/16 04:03:39;;;;;;;3.50;2.80;;;;;;;13.51;100.00;93117.19;2098760;28;20112;-84
2022/05/16 04:04:41;;;;;;;3.17;2.83;;;;;;;13.51;100.00;93111.84;2106704;28;20031;-83
2022/05/16 04:05:42;;;;;;;5.57;3.22;;;;;;;13.50;100.00;93121.06;2090356;28;20025;-82
2022/05/16 04:06:43;;;;;;;3.08;2.85;;;;;;;13.48;100.00;93109.28;2090316;28;20119;-82
2022/05/16 04:07:45;;;;;;;5.75;3.65;;;;;;;13.40;100.00;93119.50;2090108;28;20020;-84
2022/05/16 04:08:47;;;;;;;4.50;3.25;;;;;;;13.40;100.00;93114.13;2090577;28;20107;-83
2022/05/16 04:09:48;;;;;;;5.10;3.67;;;;;;;13.29;100.00;93122.50;2089937;28;20033;-84
2022/05/16 04:10:49;;;;;;;5.60;3.05;;;;;;;13.29;100.00;93116.41;2098330;28;20028;-83
2022/05/16 04:11:50;;;;;;;8.20;3.30;;;;;;;13.30;100.00;93109.84;2106719;28;20134;-84
2022/05/16 04:12:51;;;;;;;6.72;3.30;;;;;;;13.25;100.00;93115.75;2098147;28;20099;-83
2022/05/16 04:13:52;;;;;;;5.90;3.42;;;;;;;13.25;100.00;93113.06;2106530;28;20020;-83
2022/05/16 04:14:53;;;;;;;5.47;3.25;;;;;;;13.26;100.00;93122.66;2098387;28;20037;-84
2022/05/16 04:15:54;;;;;;;4.10;3.08;;;;;;;13.33;100.00;93117.78;2098272;28;20056;-84
2022/05/16 04:16:56;;;;;;;5.38;3.38;;;;;;;13.38;100.00;93118.41;2090076;28;20090;-84
2022/05/16 04:17:57;;;;;;;4.68;3.63;;;;;;;13.39;100.00;93118.00;2090302;28;20079;-84
2022/05/16 04:18:58;;;;;;;4.57;3.00;;;;;;;13.37;100.00;93117.66;2098223;28;20115;-84
2022/05/16 04:19:59;;;;;;;6.43;3.10;;;;;;;13.39;100.00;93120.69;2106630;28;20762;-84
2022/05/16 04:21:00;;;;;;;6.13;3.53;;;;;;;13.40;100.00;93114.13;2098532;28;20024;-82
2022/05/16 04:22:02;;;;;;;3.80;3.40;;;;;;;13.33;100.00;93117.03;2098274;28;20516;-85
2022/05/16 04:23:03;;;;;;;4.10;3.45;;;;;;;13.23;100.00;93115.44;2090237;28;20449;-83
2022/05/16 04:24:06;;;;;;;3.63;3.05;;;;;;;13.18;100.00;93113.28;2090003;28;20025;-84
2022/05/16 04:25:10;;;;;;;4.43;3.00;;;;;;;13.15;100.00;93117.56;2090545;28;20506;-83
2022/05/16 04:26:11;;;;;;;3.80;3.50;;;;;;;13.27;100.00;93113.41;2090399;28;20107;-83
2022/05/16 04:27:12;;;;;;;5.50;3.15;;;;;;;13.21;100.00;93115.09;2090019;28;20048;-85
2022/05/16 04:28:13;;;;;;;4.05;3.40;;;;;;;13.32;100.00;93116.28;2090218;28;20484;-85
2022/05/16 04:29:15;;;;;;;3.30;2.97;;;;;;;13.25;100.00;93111.13;2106630;28;20027;-84
2022/05/16 04:30:16;;;;;;;4.35;3.58;;;;;;;13.15;100.00;93109.53;2105698;28;20069;-84
2022/05/16 04:31:17;;;;;;;6.10;3.75;;;;;;;13.07;100.00;93114.34;2106500;28;20024;-84
2022/05/16 04:32:18;;;;;;;4.00;3.05;;;;;;;13.03;100.00;93115.66;2106487;28;20051;-83
2022/05/16 04:33:19;;;;;;;3.88;3.58;;;;;;;13.05;100.00;93111.38;2098262;28;20043;-84
2022/05/16 04:34:20;;;;;;;3.92;3.53;;;;;;;13.02;100.00;93111.47;2098216;28;20032;-83
2022/05/16 04:35:21;;;;;;;4.97;3.35;;;;;;;13.10;100.00;93116.19;2098121;28;20417;-83
2022/05/16 04:36:37;;;;;;;4.72;3.28;;;;;;;13.04;100.00;93117.91;2088988;28;20033;-86
2022/05/16 04:37:38;;;;;;;5.63;3.35;;;;;;;12.94;100.00;93115.56;2093908;28;20033;-84
2022/05/16 04:38:39;;;;;;;6.63;3.38;;;;;;;13.07;100.00;93118.97;2098242;28;20110;-85
2022/05/16 04:39:40;;;;;;;7.53;3.78;;;;;;;13.04;100.00;93114.50;2098018;28;20024;-85
2022/05/16 04:43:20;;;;;;;6.00;3.33;;;;;;;13.22;100.00;93119.28;2100781;28;20050;-85
2022/05/16 04:44:21;;;;;;;4.28;3.70;;;;;;;13.08;100.00;93121.25;2098102;28;20021;-83
2022/05/16 04:45:26;;;;;;;6.13;3.55;;;;;;;13.10;100.00;93126.91;2098062;28;20085;-83
2022/05/16 04:46:27;;;;;;;4.03;3.63;;;;;;;13.19;100.00;93122.84;2090320;28;20020;-83
2022/05/16 04:47:28;;;;;;;6.82;3.63;;;;;;;13.26;100.00;93125.34;2098060;28;20071;-83
2022/05/16 04:48:29;;;;;;;4.05;3.70;;;;;;;13.37;100.00;93125.72;2098247;28;20024;-84
2022/05/16 04:49:30;;;;;;;4.65;3.58;;;;;;;13.32;100.00;93124.34;2089615;28;20025;-85
2022/05/16 04:50:33;;;;;;;5.70;4.07;;;;;;;13.25;100.00;93127.25;2092008;28;20130;-84
2022/05/16 04:51:34;;;;;;;5.68;3.45;;;;;;;13.25;100.00;93126.50;2090035;28;20025;-84
2022/05/16 04:52:35;;;;;;;5.53;3.80;;;;;;;13.29;100.00;93121.75;2089924;28;20021;-82
2022/05/16 04:53:36;;;;;;;8.15;3.72;;;;;;;13.33;100.00;93117.78;2089805;28;20068;-83
2022/05/16 04:54:40;;;;;;;5.88;4.00;;;;;;;13.32;100.00;93124.34;2089836;28;20032;-84
2022/05/16 04:55:41;;;;;;;7.07;3.65;;;;;;;13.39;100.00;93122.59;2089890;28;20029;-82
2022/05/16 04:56:41;;;;;;;4.93;3.65;;;;;;;13.40;100.00;93121.44;2100504;28;20020;-82
2022/05/16 04:57:45;;;;;;;4.53;4.00;;;;;;;13.43;100.00;93123.97;2097924;28;20082;-84
2022/05/16 04:58:45;;;;;;;6.22;3.97;;;;;;;13.50;100.00;93125.69;2098021;28;20028;-85
2022/05/16 04:59:49;;;;;;;4.50;3.75;;;;;;;13.53;100.00;93122.91;2097987;28;20485;-82
2022/05/16 05:00:51;;;;;;;4.63;3.80;;;;;;;13.54;100.00;93123.66;2098144;28;20062;-83
2022/05/16 05:01:53;;;;;;;6.70;3.90;;;;;;;13.49;100.00;93118.84;2089608;28;20029;-84
2022/05/16 05:02:54;;;;;;;6.28;4.47;;;;;;;13.56;100.00;93114.00;2098313;28;20047;-84
2022/05/16 05:03:55;;;;;;;5.65;3.85;;;;;;;13.71;100.00;93124.25;2114646;28;20082;-83
2022/05/16 05:04:56;;;;;;;5.60;3.90;;;;;;;13.76;100.00;93121.00;2106263;28;20412;-84
2022/05/16 05:05:57;;;;;;;4.50;3.97;;;;;;;13.74;100.00;93124.13;2097785;28;20051;-83